createdAt,value
2024-05-09T00:02:15.695Z,94625.19
2024-05-09T00:07:20.584Z,94620.28
2024-05-09T00:12:25.584Z,94613.25
2024-05-09T00:17:31.000Z,94611.31
2024-05-09T00:22:35.922Z,94614.69
2024-05-09T00:27:41.754Z,94609.84
2024-05-09T00:32:46.671Z,94608.13
2024-05-09T00:37:51.574Z,94611.09
2024-05-09T00:42:56.469Z,94609.06
2024-05-09T00:48:06.470Z,94597.63
2024-05-09T00:53:17.092Z,94607.19
2024-05-09T00:58:25.779Z,94601.78
2024-05-09T01:03:30.939Z,94605.38
2024-05-09T01:08:36.074Z,94596.31
2024-05-09T01:13:40.949Z,94588.53
2024-05-09T01:18:46.063Z,94589.34
2024-05-09T01:23:51.000Z,94595.00
2024-05-09T01:28:55.875Z,94596.59
2024-05-09T01:34:00.878Z,94603.97
2024-05-09T01:39:05.881Z,94600.22
2024-05-09T01:44:10.934Z,94600.22
2024-05-09T01:49:15.852Z,94595.72
2024-05-09T01:54:20.717Z,94594.84
2024-05-09T01:59:25.773Z,94586.97
2024-05-09T02:04:30.858Z,94587.06
2024-05-09T02:09:35.740Z,94584.47
2024-05-09T02:14:40.538Z,94591.28
2024-05-09T02:19:45.353Z,94598.41
2024-05-09T02:24:50.286Z,94595.03
2024-05-09T02:29:55.091Z,94587.53
2024-05-09T02:34:59.953Z,94587.53
2024-05-09T02:40:07.105Z,94586.91
2024-05-09T02:45:13.966Z,94585.91
2024-05-09T02:50:26.614Z,94575.31
2024-05-09T02:55:38.983Z,94574.34
2024-05-09T03:00:43.897Z,94577.91
2024-05-09T03:05:48.879Z,94579.81
2024-05-09T03:10:53.756Z,94587.88
2024-05-09T03:15:58.547Z,94589.66
2024-05-09T03:21:03.457Z,94592.31
2024-05-09T03:26:13.817Z,94587.03
2024-05-09T03:31:21.774Z,94588.38
2024-05-09T03:36:26.805Z,94588.72
2024-05-09T03:41:31.700Z,94591.63
2024-05-09T03:46:41.265Z,94580.25
2024-05-09T03:51:46.795Z,94584.00
2024-05-09T03:56:51.601Z,94590.00
2024-05-09T04:01:56.594Z,94589.09
2024-05-09T04:07:01.467Z,94587.38
2024-05-09T04:12:06.395Z,94590.44
2024-05-09T04:17:11.246Z,94591.34
2024-05-09T04:22:16.276Z,94599.75
2024-05-09T04:27:21.091Z,94601.38
2024-05-09T04:32:26.010Z,94600.91
2024-05-09T04:37:31.038Z,94599.06
2024-05-09T04:42:35.849Z,94611.66
2024-05-09T04:47:40.877Z,94607.66
2024-05-09T04:52:45.927Z,94612.84
2024-05-09T04:57:50.716Z,94609.00
2024-05-09T05:02:55.627Z,94607.22
2024-05-09T05:08:00.718Z,94603.28
2024-05-09T05:13:24.764Z,94607.22
2024-05-09T05:18:30.850Z,94610.97
2024-05-09T05:23:35.780Z,94622.38
2024-05-09T05:28:40.666Z,94618.97
2024-05-09T05:33:45.576Z,94620.28
2024-05-09T05:38:50.696Z,94631.22
2024-05-09T05:43:55.564Z,94625.00
2024-05-09T05:49:00.513Z,94608.91
2024-05-09T05:54:05.358Z,94612.28
2024-05-09T05:59:11.984Z,94611.94
2024-05-09T06:04:18.202Z,94620.03
2024-05-09T06:09:23.081Z,94618.41
2024-05-09T06:14:28.105Z,94630.78
2024-05-09T06:19:33.210Z,94623.06
2024-05-09T06:24:38.190Z,94626.41
2024-05-09T06:29:43.202Z,94622.44
2024-05-09T06:34:49.859Z,94621.22
2024-05-09T06:39:54.660Z,94625.19
2024-05-09T06:44:59.463Z,94628.78
2024-05-09T06:50:08.217Z,94617.78
2024-05-09T06:55:15.238Z,94613.00
2024-05-09T07:00:27.485Z,94618.75
2024-05-09T07:05:40.511Z,94619.00
2024-05-09T07:10:45.503Z,94625.06
2024-05-09T07:15:50.459Z,94627.59
2024-05-09T07:20:55.476Z,94630.28
2024-05-09T07:26:00.476Z,94624.84
2024-05-09T07:31:05.308Z,94624.41
2024-05-09T07:36:10.250Z,94616.41
2024-05-09T07:41:15.108Z,94618.84
2024-05-09T07:56:35.264Z,94612.91
2024-05-09T08:01:40.299Z,94618.31
2024-05-09T08:06:45.234Z,94610.41
2024-05-09T08:11:50.092Z,94608.91
2024-05-09T08:16:54.953Z,94602.81
2024-05-09T08:22:01.771Z,94615.38
2024-05-09T08:27:06.693Z,94612.94
2024-05-09T08:32:13.026Z,94609.31
2024-05-09T08:37:22.397Z,94605.88
2024-05-09T08:42:30.356Z,94611.75
2024-05-09T08:47:35.245Z,94602.69
2024-05-09T08:52:40.253Z,94596.00
2024-05-09T08:57:45.181Z,94602.97
2024-05-09T09:02:52.579Z,94597.34
2024-05-09T09:07:57.415Z,94604.00
2024-05-09T09:13:05.349Z,94606.78
2024-05-09T09:18:12.360Z,94605.69
2024-05-09T09:23:19.784Z,94601.06
2024-05-09T09:28:26.162Z,94613.00
2024-05-09T09:33:32.198Z,94613.53
2024-05-09T09:38:40.004Z,94606.41
2024-05-09T09:43:45.565Z,94612.66
2024-05-09T09:48:50.586Z,94613.91
2024-05-09T09:53:55.882Z,94609.72
2024-05-09T09:59:01.565Z,94600.16
2024-05-09T10:04:06.756Z,94599.44
2024-05-09T10:09:18.098Z,94609.19
2024-05-09T10:14:25.696Z,94611.00
2024-05-09T10:19:31.144Z,94612.31
2024-05-09T10:24:55.445Z,94611.81
2024-05-09T10:30:06.871Z,94605.56
2024-05-09T10:35:19.418Z,94600.94
2024-05-09T10:40:29.398Z,94598.16
2024-05-09T10:45:38.393Z,94601.75
2024-05-09T10:50:46.990Z,94596.34
2024-05-09T10:56:01.315Z,94590.44
2024-05-09T11:01:07.351Z,94588.97
2024-05-09T11:06:14.340Z,94596.50
2024-05-09T11:11:20.134Z,94588.63
2024-05-09T11:16:25.048Z,94584.75
2024-05-09T11:21:29.968Z,94563.78
2024-05-09T11:26:35.599Z,94565.66
2024-05-09T11:31:50.552Z,94569.56
2024-05-09T11:36:55.441Z,94563.50
2024-05-09T11:42:00.843Z,94564.78
2024-05-09T11:47:07.122Z,94561.81
2024-05-09T11:52:12.051Z,94552.25
2024-05-09T11:57:16.849Z,94550.09
2024-05-09T12:02:21.926Z,94548.91
2024-05-09T12:07:27.032Z,94544.84
2024-05-09T12:12:32.958Z,94540.22
2024-05-09T12:17:39.080Z,94551.69
2024-05-09T12:22:43.903Z,94543.13
2024-05-09T12:27:48.896Z,94540.56
2024-05-09T12:32:53.858Z,94542.22
2024-05-09T12:37:58.893Z,94544.84
2024-05-09T12:43:03.704Z,94535.47
2024-05-09T12:48:12.171Z,94531.56
2024-05-09T12:53:17.700Z,94534.13
2024-05-09T12:58:22.956Z,94516.13
2024-05-09T13:03:28.006Z,94519.00
2024-05-09T13:08:32.863Z,94518.50
2024-05-09T13:13:37.702Z,94512.22
2024-05-09T13:18:44.126Z,94518.41
2024-05-09T13:23:49.036Z,94510.75
2024-05-09T13:28:53.820Z,94506.28
2024-05-09T13:33:58.669Z,94501.84
2024-05-09T13:39:03.883Z,94496.13
2024-05-09T13:44:09.710Z,94497.31
2024-05-09T13:49:17.024Z,94480.41
2024-05-09T13:54:22.782Z,94479.88
2024-05-09T13:59:27.838Z,94480.97
2024-05-09T14:04:32.762Z,94482.41
2024-05-09T14:09:37.714Z,94482.44
2024-05-09T14:14:42.602Z,94474.50
2024-05-09T14:19:47.445Z,94463.75
2024-05-09T14:24:52.479Z,94453.19
2024-05-09T14:29:57.262Z,94456.19
2024-05-09T14:35:02.081Z,94459.75
2024-05-09T14:40:09.527Z,94461.34
2024-05-09T14:45:19.454Z,94457.28
2024-05-09T14:50:34.404Z,94449.22
2024-05-09T14:55:43.752Z,94442.47
2024-05-09T15:00:51.335Z,94432.72
2024-05-09T15:05:57.523Z,94425.81
2024-05-09T15:11:02.390Z,94434.66
2024-05-09T15:16:07.965Z,94430.59
2024-05-09T15:21:12.808Z,94432.31
2024-05-09T15:26:18.153Z,94419.41
2024-05-09T15:31:23.053Z,94424.78
2024-05-09T15:36:27.990Z,94418.31
2024-05-09T15:41:32.766Z,94414.41
2024-05-09T15:46:37.965Z,94418.25
2024-05-09T15:51:42.897Z,94422.41
2024-05-09T15:56:49.248Z,94417.25
2024-05-09T16:01:54.411Z,94415.44
2024-05-09T16:06:59.390Z,94405.81
2024-05-09T16:12:04.228Z,94406.31
2024-05-09T16:17:09.174Z,94406.09
2024-05-09T16:22:14.108Z,94407.53
2024-05-09T16:27:19.157Z,94412.81
2024-05-09T16:32:24.061Z,94401.03
2024-05-09T16:37:29.780Z,94391.66
2024-05-09T16:42:35.322Z,94392.56
2024-05-09T16:47:40.251Z,94380.22
2024-05-09T16:52:45.287Z,94394.31
2024-05-09T16:57:53.395Z,94386.22
2024-05-09T17:02:58.306Z,94383.81
2024-05-09T17:08:03.367Z,94389.34
2024-05-09T17:13:08.524Z,94385.94
2024-05-09T17:18:13.434Z,94384.78
2024-05-09T17:23:21.386Z,94383.50
2024-05-09T17:28:26.508Z,94382.41
2024-05-09T17:33:31.903Z,94395.59
2024-05-09T17:38:36.974Z,94389.75
2024-05-09T17:43:41.791Z,94391.88
2024-05-09T17:48:46.752Z,94398.53
2024-05-09T17:53:51.606Z,94401.75
2024-05-09T17:58:56.650Z,94399.47
2024-05-09T18:04:01.626Z,94397.75
2024-05-09T18:09:06.888Z,94396.72
2024-05-09T18:14:11.683Z,94392.94
2024-05-09T18:19:16.639Z,94395.88
2024-05-09T18:24:22.222Z,94392.19
2024-05-09T18:29:27.045Z,94392.41
2024-05-09T18:34:33.153Z,94391.19
2024-05-09T18:39:38.209Z,94390.06
2024-05-09T18:44:44.946Z,94391.50
2024-05-09T18:49:50.690Z,94386.09
2024-05-09T18:54:57.904Z,94387.44
2024-05-09T19:00:04.183Z,94389.81
2024-05-09T19:05:10.268Z,94392.19
2024-05-09T19:10:22.491Z,94407.00
2024-05-09T19:15:30.965Z,94413.28
2024-05-09T19:20:37.788Z,94418.91
2024-05-09T19:25:45.492Z,94423.94
2024-05-09T19:30:50.566Z,94425.72
2024-05-09T19:35:55.379Z,94423.75
2024-05-09T19:41:00.366Z,94423.91
2024-05-09T19:46:05.753Z,94428.28
2024-05-09T19:51:10.640Z,94429.38
2024-05-09T19:56:16.648Z,94426.16
2024-05-09T20:01:21.544Z,94437.44
2024-05-09T20:06:28.179Z,94443.03
2024-05-09T20:11:34.061Z,94444.31
2024-05-09T20:16:43.987Z,94444.72
2024-05-09T20:21:49.335Z,94448.41
2024-05-09T20:26:55.440Z,94449.44
2024-05-09T20:32:00.914Z,94444.50
2024-05-09T20:37:09.224Z,94450.94
2024-05-09T20:42:14.884Z,94444.31
2024-05-09T20:47:21.000Z,94440.47
2024-05-09T20:52:25.904Z,94440.91
2024-05-09T20:57:32.403Z,94433.03
2024-05-09T21:02:38.621Z,94439.28
2024-05-09T21:07:44.518Z,94429.06
2024-05-09T21:12:49.631Z,94430.88
2024-05-09T21:17:55.724Z,94438.31
2024-05-09T21:23:01.282Z,94428.25
2024-05-09T21:28:06.775Z,94421.59
2024-05-09T21:33:15.068Z,94430.38
2024-05-09T21:38:20.284Z,94418.41
2024-05-09T21:43:26.842Z,94424.44
2024-05-09T21:48:31.798Z,94423.66
2024-05-09T21:53:37.957Z,94417.19
2024-05-09T21:58:44.128Z,94409.16
2024-05-09T22:03:50.327Z,94413.00
2024-05-09T22:08:55.296Z,94406.75
2024-05-09T22:14:00.090Z,94412.16
2024-05-09T22:19:05.184Z,94409.16
2024-05-09T22:24:10.609Z,94415.13
2024-05-09T22:29:15.443Z,94407.94
2024-05-09T22:34:20.502Z,94401.72
2024-05-09T22:39:25.813Z,94407.28
2024-05-09T22:44:30.630Z,94403.63
2024-05-09T22:49:35.472Z,94397.41
2024-05-09T22:54:40.305Z,94401.06
2024-05-09T22:59:45.080Z,94402.25
2024-05-09T23:04:50.125Z,94405.72
2024-05-09T23:09:55.036Z,94415.22
2024-05-09T23:15:00.030Z,94406.59
2024-05-09T23:20:06.876Z,94407.16
2024-05-09T23:25:14.575Z,94403.56
2024-05-09T23:30:29.149Z,94402.13
2024-05-09T23:35:42.149Z,94396.75
2024-05-09T23:40:47.016Z,94392.03
2024-05-09T23:45:51.823Z,94389.56
2024-05-09T23:50:56.628Z,94389.81
2024-05-09T23:56:01.422Z,94388.34
